Onaway, MI (49765)

6:54 PM EST on December 25, 2014 (GMT -0500)
Rainy River | Change Station
CLOSE
Current Station
Personal Weather Station
Location: Onaway, MI
Elevation: 673 ft
Nearby Weather Stations

Elev 673 ft 45.43 °N, 84.20 °W | Updated 10 minutes ago

Overcast
Overcast
32.9 °F
Feels Like 33 °F
N
1.1
Wind Variable Wind from SSW

Today
High -- | Low -- °F
--% Chance of Precip.
Yesterday
High -- | Low -- °F
Precip. -- in
8:15 AM 4:58 PM
Waxing Crescent, 20% visible
Pressure 29.90 in
Visibility 10.0 miles
Clouds Scattered Clouds 2300 ft
Mostly Cloudy 6000 ft
Windchill 33 °F
Dew Point 31 °F
Humidity 92%
Rainfall 0.13 in
Snow Depth Not available.
UV 0 out of 12
Pollen .10 out of 12
Air Quality Not available.
Flu Activity Not available.
METAR KPZQ 252334Z AUTO 22008KT 10SM SCT023 BKN060 02/00 A2990 RMK AO2 T00150000

More Conditions Fewer Conditions

Pressure 29.90 in
Visibility 10.0 miles
Clouds Scattered Clouds 2300 ft
Mostly Cloudy 6000 ft
Windchill 33 °F
Dew Point 31 °F
Humidity 92%
Rainfall 0.13 in
Snow Depth Not available.
UV 0 out of 12
Pollen .10 out of 12
Air Quality Not available.
Flu Activity Not available.
METAR KPZQ 252334Z AUTO 22008KT 10SM SCT023 BKN060 02/00 A2990 RMK AO2 T00150000

More Conditions Fewer Conditions

Nowcast | as of 6:00 PM EST on December 25, 2014

At 7 PM...cloudy. Temperature 34. Southwest winds 12 mph. At 9 PM...mostly cloudy. Temperature 33. Southwest winds 10 mph. At 11 PM...mostly cloudy. Temperature 33. Southwest winds 9 mph. At 1 am...mostly cloudy. Temperature 33. Southwest winds 8 mph.

×

10-Day Weather Forecast

Almanac

Astronomy

Dec. 25, 2014 Rise Set
Actual Time
Civil Twilight
Nautical Twilight
Astronomical Twilight
Moon
Length of Visible Light
Length of Day
Tomorrow will be .
, % of the Moon is Illuminated

Today's Extremes

State Highs State Lows

Community

WunderPhotos

Upload Photos

1,780,458 photos uploaded!

WunderBlogs® & News

Nearby

Air Quality

  Air Quality AQ Index Pollutant
Not available.

Snow Depth

Station Depth Elevation

Earthquake Activity

City Distance Mag. Time & Date
Minimum magnitude displayed is 2.5.

Coastal Water Temperatures

Place Temperature

Nearby Weather Stations